Time;durP1;ratioP1;P1;durP2;ratioP2;P2;SDS_P1;SDS_P2;PMS_P1;PMS_P2;Temp;Humidity;BMP_temperature;BMP_pressure;BME280_temperature;BME280_humidity;BME280_pressure;Samples;Min_cycle;Max_cycle;Signal;HPM_P1;HPM_P2
2022/06/09 00:01:55;;;;;;;25.33;16.48;;;;;;;;;;4991176;28;20046;-79
2022/06/09 00:04:35;;;;;;;25.20;15.07;;;;;;;13.90;100.00;68317.69;4986091;28;20070;-80
2022/06/09 00:07:05;;;;;;;22.52;14.45;;;;;;;;;;4988381;28;20046;-80
2022/06/09 00:09:34;;;;;;;21.42;14.57;;;;;;;13.91;100.00;68313.47;4984111;28;20050;-78
2022/06/09 00:11:59;;;;;;;25.75;17.35;;;;;;;;;;4985923;28;20053;-79
2022/06/09 00:14:25;;;;;;;25.13;15.77;;;;;;;13.94;100.00;68314.22;4986566;28;20100;-79
2022/06/09 00:16:50;;;;;;;27.15;15.65;;;;;;;13.95;100.00;68323.97;4971472;28;20738;-79
2022/06/09 00:19:18;;;;;;;27.75;15.18;;;;;;;13.95;100.00;68318.59;4950564;28;20035;-79
2022/06/09 00:21:44;;;;;;;27.33;16.63;;;;;;;;;;4967632;28;20049;-77
2022/06/09 00:24:09;;;;;;;24.65;17.55;;;;;;;;;;4984092;28;20034;-79
2022/06/09 00:26:35;;;;;;;24.98;15.85;;;;;;;;;;4968820;28;20125;-78
2022/06/09 00:29:01;;;;;;;23.70;15.77;;;;;;;14.01;100.00;68330.19;4968219;28;20038;-78
2022/06/09 00:31:26;;;;;;;29.10;15.50;;;;;;;;;;4986820;28;20052;-78
2022/06/09 00:33:52;;;;;;;28.42;18.00;;;;;;;;;;4969630;28;20050;-78
2022/06/09 00:36:17;;;;;;;24.23;16.05;;;;;;;;;;4972769;28;20058;-79
2022/06/09 00:38:42;;;;;;;26.92;17.45;;;;;;;14.11;100.00;68336.22;4967766;28;20077;-79
2022/06/09 00:41:08;;;;;;;29.15;16.40;;;;;;;;;;4985589;28;20072;-79
2022/06/09 00:43:34;;;;;;;25.90;17.17;;;;;;;14.08;100.00;68332.81;4979503;28;20049;-79
2022/06/09 00:46:05;;;;;;;27.05;16.35;;;;;;;14.07;100.00;68331.69;4987114;28;20043;-79
2022/06/09 00:48:48;;;;;;;28.25;16.35;;;;;;;14.05;100.00;68329.41;4987577;28;20516;-78
2022/06/09 00:51:32;;;;;;;26.20;15.93;;;;;;;;;;4984950;28;20081;-78
2022/06/09 00:54:06;;;;;;;24.17;14.70;;;;;;;14.05;100.00;68329.41;4988950;28;20042;-79
2022/06/09 00:56:35;;;;;;;24.98;14.93;;;;;;;14.07;100.00;68331.69;4984917;28;20042;-79
2022/06/09 00:59:00;;;;;;;26.30;14.95;;;;;;;;;;4974925;28;20493;-78
2022/06/09 01:01:26;;;;;;;24.67;13.63;;;;;;;14.05;100.00;68328.84;4968236;28;20046;-79
2022/06/09 01:03:59;;;;;;;27.20;14.52;;;;;;;;;;4977748;28;20097;-78
2022/06/09 01:06:27;;;;;;;23.15;13.52;;;;;;;;;;4986134;28;20113;-79
2022/06/09 01:09:00;;;;;;;26.20;14.20;;;;;;;;;;4987638;28;20049;-78
2022/06/09 01:11:26;;;;;;;23.60;12.63;;;;;;;14.03;100.00;68332.47;4977486;28;20084;-79
2022/06/09 01:13:55;;;;;;;23.63;13.00;;;;;;;14.02;100.00;68325.44;4986268;28;20442;-79
2022/06/09 01:16:29;;;;;;;24.23;12.98;;;;;;;14.04;100.00;68328.28;4982283;28;20039;-79
2022/06/09 01:19:16;;;;;;;26.65;13.30;;;;;;;;;;4967756;28;20062;-79
2022/06/09 01:22:04;;;;;;;22.15;13.38;;;;;;;;;;4922550;28;20085;-79
2022/06/09 01:24:56;;;;;;;35.20;13.60;;;;;;;14.02;100.00;68331.34;4989082;28;20502;-79
2022/06/09 01:27:33;;;;;;;27.00;13.43;;;;;;;;;;4982062;28;20408;-79
2022/06/09 01:30:12;;;;;;;25.90;13.02;;;;;;;;;;4987539;28;20162;-79
2022/06/09 01:32:48;;;;;;;22.20;12.88;;;;;;;13.92;100.00;68315.19;4965054;28;20034;-80
2022/06/09 01:35:41;;;;;;;22.25;13.63;;;;;;;13.88;100.00;68310.06;4977973;28;20075;-79
2022/06/09 01:38:06;;;;;;;19.65;11.05;;;;;;;;;;4969902;28;20034;-80
2022/06/09 01:40:32;;;;;;;21.52;11.93;;;;;;;;;;4994195;28;20049;-80
2022/06/09 01:42:58;;;;;;;22.73;12.77;;;;;;;;;;4993634;28;20042;-79
2022/06/09 01:45:39;;;;;;;23.48;13.32;;;;;;;13.89;100.00;68311.19;4991237;28;20054;-80
2022/06/09 01:48:06;;;;;;;23.08;11.73;;;;;;;;;;4995427;28;20080;-80
2022/06/09 01:51:03;;;;;;;27.80;13.35;;;;;;;13.87;100.00;68314.84;4993799;28;20476;-79
2022/06/09 01:53:37;;;;;;;25.35;12.32;;;;;;;13.83;100.00;68309.72;4991679;28;20053;-79
2022/06/09 01:56:19;;;;;;;24.60;13.15;;;;;;;13.79;100.00;68299.84;4994754;28;20121;-80
2022/06/09 01:58:47;;;;;;;24.23;13.73;;;;;;;;;;4994894;28;20054;-78
2022/06/09 02:01:15;;;;;;;22.33;12.35;;;;;;;13.76;100.00;68296.97;4991893;28;20042;-79
2022/06/09 02:03:44;;;;;;;25.75;12.27;;;;;;;13.73;100.00;68294.13;4996600;28;20137;-79
2022/06/09 02:06:11;;;;;;;26.95;14.38;;;;;;;13.74;100.00;68300.63;4979611;28;20038;-78
2022/06/09 02:08:38;;;;;;;22.10;12.43;;;;;;;13.76;100.00;68294.31;4990400;28;20132;-79
2022/06/09 02:11:11;;;;;;;24.45;13.73;;;;;;;13.73;100.00;68294.13;4987144;28;20536;-77
2022/06/09 02:13:42;;;;;;;28.10;13.00;;;;;;;;;;4989962;28;20042;-79
2022/06/09 02:16:12;;;;;;;29.80;14.18;;;;;;;13.72;100.00;68298.34;4973499;28;20084;-78
2022/06/09 02:18:40;;;;;;;28.55;13.75;;;;;;;13.67;100.00;68287.31;4993483;28;20051;-77
2022/06/09 02:21:05;;;;;;;23.05;13.32;;;;;;;;;;4984874;28;20393;-78
2022/06/09 02:23:31;;;;;;;19.17;13.83;;;;;;;;;;4970122;28;20125;-79
2022/06/09 02:25:57;;;;;;;25.45;14.98;;;;;;;13.67;100.00;68284.06;4973588;28;20306;-78
2022/06/09 02:28:22;;;;;;;24.85;14.18;;;;;;;13.68;100.00;68287.88;4989750;28;20038;-79
2022/06/09 02:30:48;;;;;;;28.65;15.60;;;;;;;13.66;100.00;68285.59;4989706;28;20049;-78
2022/06/09 02:33:16;;;;;;;25.52;15.15;;;;;;;13.61;100.00;68280.50;4985352;28;20043;-78
2022/06/09 02:35:42;;;;;;;26.55;14.82;;;;;;;13.57;100.00;68272.69;4990177;28;20109;-78
2022/06/09 02:38:08;;;;;;;24.40;15.00;;;;;;;13.63;100.00;68279.50;4983602;28;20515;-79
2022/06/09 02:40:34;;;;;;;27.58;15.05;;;;;;;13.59;100.00;68278.22;4969750;28;20518;-78
2022/06/09 02:43:00;;;;;;;27.65;15.23;;;;;;;13.58;100.00;68277.09;4956510;28;20122;-79
2022/06/09 02:45:26;;;;;;;33.05;16.40;;;;;;;13.57;100.00;68275.94;4989532;28;20034;-79
2022/06/09 02:47:52;;;;;;;24.65;16.25;;;;;;;13.58;100.00;68276.50;4986749;28;20154;-79
2022/06/09 02:50:17;;;;;;;25.58;15.68;;;;;;;;;;4970221;28;20043;-78
2022/06/09 02:52:43;;;;;;;32.28;19.30;;;;;;;13.60;100.00;68279.34;4953980;28;20047;-79
2022/06/09 02:55:10;;;;;;;35.78;16.98;;;;;;;13.56;100.00;68274.81;4990710;28;20129;-79
2022/06/09 02:57:36;;;;;;;32.65;18.77;;;;;;;;;;4987616;28;20042;-79
2022/06/09 03:00:02;;;;;;;30.83;17.65;;;;;;;13.53;100.00;68271.97;4991377;28;20042;-80
2022/06/09 03:02:27;;;;;;;29.83;17.83;;;;;;;13.57;100.00;68275.38;4976727;28;20042;-78
2022/06/09 03:04:53;;;;;;;33.58;17.17;;;;;;;13.61;100.00;68279.91;4994686;28;20066;-80
2022/06/09 03:07:18;;;;;;;33.33;18.35;;;;;;;13.63;100.00;68282.75;4994767;28;20050;-78
2022/06/09 03:09:43;;;;;;;27.27;18.05;;;;;;;13.61;100.00;68280.50;4972944;28;20528;-77
2022/06/09 03:12:09;;;;;;;30.13;18.60;;;;;;;;;;4988477;28;20125;-77
2022/06/09 03:14:35;;;;;;;34.90;20.38;;;;;;;13.57;100.00;68275.94;4988294;28;20501;-79
2022/06/09 03:17:02;;;;;;;34.72;18.60;;;;;;;13.55;100.00;68270.97;4989556;28;20042;-79
2022/06/09 03:19:28;;;;;;;31.70;18.33;;;;;;;;;;4986658;28;20129;-79
2022/06/09 03:21:53;;;;;;;28.13;16.88;;;;;;;13.48;100.00;68265.69;4988741;28;20180;-78
2022/06/09 03:24:19;;;;;;;29.20;16.08;;;;;;;13.48;100.00;68266.25;4969009;28;20053;-79
2022/06/09 03:26:44;;;;;;;31.77;17.10;;;;;;;;;;4981302;28;20065;-77
2022/06/09 03:29:10;;;;;;;36.10;18.85;;;;;;;13.46;100.00;68263.97;4989358;28;20049;-79
2022/06/09 03:31:35;;;;;;;30.35;17.95;;;;;;;;;;4986422;28;20576;-79
2022/06/09 03:34:02;;;;;;;33.95;17.25;;;;;;;;;;4986746;28;20089;-79
2022/06/09 03:36:28;;;;;;;35.15;19.10;;;;;;;13.40;100.00;68253.91;4987589;28;20034;-80
2022/06/09 03:38:53;;;;;;;30.08;17.58;;;;;;;13.42;100.00;68264.78;4986008;28;20406;-80
2022/06/09 03:41:19;;;;;;;29.65;19.52;;;;;;;13.40;100.00;68257.16;4987411;28;20121;-79
2022/06/09 03:43:44;;;;;;;30.50;19.88;;;;;;;13.37;100.00;68253.75;4986977;28;20050;-80
2022/06/09 03:46:12;;;;;;;32.95;18.98;;;;;;;13.36;100.00;68252.63;4983923;28;20125;-78
2022/06/09 03:48:37;;;;;;;34.88;21.35;;;;;;;;;;4983049;28;20050;-79
2022/06/09 03:51:03;;;;;;;30.15;18.23;;;;;;;13.33;100.00;68246.53;4977358;28;20127;-79
2022/06/09 03:53:28;;;;;;;35.60;16.65;;;;;;;13.33;100.00;68249.22;4983950;28;20180;-78
2022/06/09 03:55:54;;;;;;;32.95;17.88;;;;;;;;;;4994885;28;20689;-81
2022/06/09 03:58:19;;;;;;;30.75;18.77;;;;;;;13.29;100.00;68250.59;4992293;28;20042;-79
2022/06/09 04:00:45;;;;;;;34.67;18.23;;;;;;;13.30;100.00;68246.38;4986274;28;20045;-78
2022/06/09 04:03:10;;;;;;;31.52;17.85;;;;;;;13.28;100.00;68240.84;4977431;28;20038;-77
2022/06/09 04:05:36;;;;;;;27.77;16.98;;;;;;;;;;4978515;28;20073;-78
2022/06/09 04:08:02;;;;;;;29.13;18.08;;;;;;;13.27;100.00;68248.31;4987385;28;20633;-77
2022/06/09 04:10:31;;;;;;;29.95;17.63;;;;;;;13.29;100.00;68244.66;4986026;28;20042;-77
2022/06/09 04:12:57;;;;;;;33.13;17.83;;;;;;;13.28;100.00;68248.88;5019394;23;20398;-85
2022/06/09 04:15:23;;;;;;;32.60;16.83;;;;;;;;;;5013528;28;20104;-84
2022/06/09 04:17:48;;;;;;;34.60;18.80;;;;;;;;;;5044475;28;20045;-85
2022/06/09 04:20:16;;;;;;;32.45;16.95;;;;;;;13.22;100.00;68237.25;5038719;28;20064;-85
2022/06/09 04:22:42;;;;;;;29.10;14.20;;;;;;;13.25;100.00;68240.09;5027069;28;20037;-83
2022/06/09 04:25:08;;;;;;;28.08;17.38;;;;;;;13.23;100.00;68245.81;5027048;28;20060;-84
2022/06/09 04:27:34;;;;;;;29.50;15.68;;;;;;;13.20;100.00;68240.31;5026140;28;20045;-84
2022/06/09 04:30:00;;;;;;;27.63;14.85;;;;;;;13.19;100.00;68239.19;5008052;28;20559;-85
2022/06/09 04:32:26;;;;;;;24.90;14.75;;;;;;;13.22;100.00;68242.03;5018605;28;20101;-85
2022/06/09 04:34:52;;;;;;;31.92;16.92;;;;;;;13.25;100.00;68240.69;5009682;28;20041;-84
2022/06/09 04:37:17;;;;;;;32.58;16.27;;;;;;;13.22;100.00;68242.59;5028209;28;20057;-84
2022/06/09 04:39:43;;;;;;;27.58;15.40;;;;;;;13.23;100.00;68238.38;5027704;28;20344;-84
2022/06/09 04:42:08;;;;;;;25.45;13.43;;;;;;;13.23;100.00;68238.38;5028497;28;20061;-85
2022/06/09 04:44:34;;;;;;;25.25;14.55;;;;;;;13.25;100.00;68240.69;5029081;28;20060;-84
2022/06/09 04:46:59;;;;;;;28.42;14.52;;;;;;;;;;5029667;28;20065;-84
2022/06/09 04:49:25;;;;;;;24.85;12.27;;;;;;;13.36;100.00;68257.41;5025806;28;20674;-84
2022/06/09 04:51:50;;;;;;;23.58;12.82;;;;;;;13.35;100.00;68248.81;5022659;28;20485;-83
2022/06/09 04:54:15;;;;;;;27.90;11.88;;;;;;;13.42;100.00;68264.22;5011960;28;20068;-83
2022/06/09 04:56:41;;;;;;;20.30;11.30;;;;;;;;;;5020757;28;20118;-83
2022/06/09 04:59:06;;;;;;;21.33;10.52;;;;;;;;;;5030883;28;20092;-82
2022/06/09 05:01:32;;;;;;;20.35;11.05;;;;;;;13.52;100.00;68268.16;5029861;28;20049;-83
2022/06/09 05:03:58;;;;;;;26.48;12.40;;;;;;;;;;5030587;28;20045;-83
2022/06/09 05:06:24;;;;;;;23.45;10.77;;;;;;;13.49;100.00;68261.47;5012163;28;20119;-83
2022/06/09 05:08:53;;;;;;;23.48;11.43;;;;;;;13.54;100.00;68273.09;5031002;28;20037;-83
2022/06/09 05:11:20;;;;;;;19.05;10.88;;;;;;;13.60;100.00;68284.69;5022024;28;20407;-83
2022/06/09 05:13:46;;;;;;;23.25;11.32;;;;;;;13.56;100.00;68280.16;5028362;28;20049;-84
2022/06/09 05:16:12;;;;;;;24.73;10.35;;;;;;;13.54;100.00;68278.44;5016198;28;20033;-84
2022/06/09 05:18:38;;;;;;;20.65;10.52;;;;;;;13.51;100.00;68269.09;5026929;28;20138;-84
2022/06/09 05:21:05;;;;;;;20.10;11.30;;;;;;;13.50;100.00;68267.97;5025091;28;20568;-84
2022/06/09 05:23:30;;;;;;;19.60;11.48;;;;;;;;;;5034874;28;20140;-84
2022/06/09 05:25:56;;;;;;;21.13;11.93;;;;;;;;;;5038378;28;20376;-83
2022/06/09 05:28:24;;;;;;;20.98;11.23;;;;;;;13.58;100.00;68276.50;5031137;28;20038;-83
2022/06/09 05:30:50;;;;;;;19.60;10.38;;;;;;;13.59;100.00;68283.56;5030085;28;20466;-84
2022/06/09 05:33:15;;;;;;;17.42;10.38;;;;;;;13.65;100.00;68285.03;5028026;28;20042;-83
2022/06/09 05:35:41;;;;;;;21.38;10.77;;;;;;;13.65;100.00;68281.78;5029146;28;20045;-85
2022/06/09 05:46:19;;;;;;;20.60;10.98;;;;;;;;;;5027339;28;20313;-85
2022/06/09 05:48:45;;;;;;;20.15;10.48;;;;;;;13.92;100.00;68312.50;5010726;28;20038;-85
2022/06/09 05:51:14;;;;;;;20.65;11.60;;;;;;;;;;5027076;28;20448;-85
2022/06/09 05:53:40;;;;;;;;;;;;;;;14.02;100.00;68331.34;5030184;28;20045;-85
2022/06/09 05:56:06;;;;;;;20.20;10.77;;;;;;;;;;5027216;28;19913;-85
2022/06/09 05:58:32;;;;;;;23.65;10.63;;;;;;;;;;5012067;28;20095;-85
2022/06/09 06:00:59;;;;;;;21.20;10.80;;;;;;;14.12;100.00;68336.81;5023254;28;20060;-85
2022/06/09 06:03:24;;;;;;;23.55;11.85;;;;;;;;;;5024688;28;20552;-85
2022/06/09 06:08:33;;;;;;;20.90;9.02;;;;;;;;;;5028018;28;20048;-85
2022/06/09 06:10:59;;;;;;;17.08;9.30;;;;;;;14.40;100.00;68374.03;5026941;28;20246;-85
2022/06/09 06:13:25;;;;;;;19.63;9.10;;;;;;;14.46;100.00;68374.94;5025755;28;20041;-84
2022/06/09 06:15:51;;;;;;;17.13;9.15;;;;;;;14.48;100.00;68374.53;5027633;28;20543;-84
2022/06/09 06:18:16;;;;;;;15.65;9.27;;;;;;;;;;5027514;28;20132;-84
2022/06/09 06:20:42;;;;;;;19.77;8.15;;;;;;;14.63;100.00;68394.31;5029465;28;20072;-85
2022/06/09 06:23:07;;;;;;;19.83;9.48;;;;;;;14.72;100.00;68403.97;5029183;28;20424;-85
2022/06/09 06:25:33;;;;;;;14.52;7.78;;;;;;;14.76;100.00;68407.97;5027500;28;20124;-84
2022/06/09 06:27:58;;;;;;;18.30;7.90;;;;;;;;;;5020778;28;20427;-84
2022/06/09 06:30:24;;;;;;;16.52;7.50;;;;;;;;;;5022055;28;20042;-84
2022/06/09 06:32:50;;;;;;;18.75;7.15;;;;;;;;;;5007462;28;20116;-84
2022/06/09 06:35:15;;;;;;;14.70;7.03;;;;;;;;;;5008210;28;20034;-84
2022/06/09 06:37:41;;;;;;;15.55;7.22;;;;;;;14.99;100.00;68430.91;5024624;28;20041;-84
2022/06/09 06:40:09;;;;;;;16.50;7.60;;;;;;;15.11;100.00;68447.25;5020313;28;20099;-84
2022/06/09 06:42:35;;;;;;;15.45;7.95;;;;;;;15.17;100.00;68454.09;5023441;28;20064;-84
2022/06/09 06:45:00;;;;;;;13.50;7.13;;;;;;;15.22;100.00;68456.53;5021624;28;20038;-84
2022/06/09 06:47:26;;;;;;;12.38;6.15;;;;;;;15.29;100.00;68467.19;5017545;28;20056;-84
2022/06/09 06:49:51;;;;;;;12.15;5.93;;;;;;;;;;5008635;28;20540;-84
2022/06/09 06:52:16;;;;;;;11.25;6.25;;;;;;;15.52;100.00;68492.81;5026691;28;20049;-84
2022/06/09 06:54:41;;;;;;;10.10;5.50;;;;;;;15.53;100.00;68493.94;5026651;28;20047;-84
2022/06/09 06:57:08;;;;;;;14.25;6.97;;;;;;;15.63;100.00;68502.09;5026741;28;20104;-84
2022/06/09 06:59:33;;;;;;;14.00;6.85;;;;;;;15.72;100.00;68515.63;5029006;28;20480;-84
2022/06/09 07:01:59;;;;;;;11.52;5.65;;;;;;;15.86;100.00;68531.00;5026759;28;20049;-84
2022/06/09 07:04:25;;;;;;;11.45;5.68;;;;;;;15.96;100.00;68542.41;5028195;28;20443;-84
2022/06/09 07:06:51;;;;;;;10.77;5.82;;;;;;;16.01;100.00;68545.41;5027824;28;20050;-84
2022/06/09 07:09:17;;;;;;;11.63;5.30;;;;;;;16.06;100.00;68550.00;5029120;28;20049;-84
2022/06/09 07:11:45;;;;;;;11.75;4.97;;;;;;;16.10;100.00;68555.09;5028573;28;20389;-84
2022/06/09 07:14:10;;;;;;;13.93;6.18;;;;;;;;;;5024885;28;20045;-84
2022/06/09 07:16:35;;;;;;;10.47;4.43;;;;;;;16.20;100.00;68568.63;5008425;28;20038;-84
2022/06/09 07:19:01;;;;;;;8.32;4.30;;;;;;;16.24;100.00;68573.19;5013114;28;20355;-84
2022/06/09 07:21:27;;;;;;;11.32;5.05;;;;;;;16.30;100.00;68577.34;5020257;28;20107;-84
2022/06/09 07:23:53;;;;;;;9.55;3.88;;;;;;;16.41;100.00;68589.31;5023288;28;20034;-84
2022/06/09 07:26:18;;;;;;;9.45;4.45;;;;;;;16.46;100.00;68595.00;5020204;28;20696;-84
2022/06/09 07:28:44;;;;;;;6.30;2.83;;;;;;;;;;5006673;28;20126;-84
2022/06/09 07:31:09;;;;;;;8.43;3.90;;;;;;;16.60;98.12;68608.28;5019696;28;20095;-84
2022/06/09 07:33:37;;;;;;;8.15;4.18;;;;;;;16.68;97.58;68619.50;5019607;28;20133;-84
2022/06/09 07:36:04;;;;;;;6.88;3.05;;;;;;;;;;5013713;28;20067;-84
2022/06/09 07:38:30;;;;;;;8.77;3.08;;;;;;;16.80;96.69;68635.91;5010511;28;20580;-84
2022/06/09 07:40:56;;;;;;;8.43;4.22;;;;;;;16.86;94.62;68642.16;5014220;28;20097;-84
2022/06/09 07:43:21;;;;;;;10.02;3.30;;;;;;;16.96;95.60;68650.34;5012406;28;20083;-84
2022/06/09 07:45:48;;;;;;;8.40;3.00;;;;;;;16.92;94.58;68646.91;5023147;28;20057;-84
2022/06/09 07:48:14;;;;;;;6.95;3.08;;;;;;;16.95;96.26;68647.06;5016994;28;20405;-84
2022/06/09 07:50:40;;;;;;;7.30;3.10;;;;;;;16.85;93.79;68636.22;5014428;28;20073;-84
2022/06/09 07:53:06;;;;;;;7.55;2.60;;;;;;;16.84;93.88;68637.78;5026507;28;20116;-84
2022/06/09 07:55:32;;;;;;;6.03;2.25;;;;;;;16.88;93.04;68645.03;5020835;28;20025;-84
2022/06/09 07:57:58;;;;;;;9.00;3.13;;;;;;;16.98;92.85;68652.63;5024237;28;20041;-84
2022/06/09 08:00:25;;;;;;;6.53;3.10;;;;;;;17.09;93.69;68667.84;5022738;28;20040;-84
2022/06/09 08:02:51;;;;;;;6.75;2.80;;;;;;;17.19;93.38;68676.56;5022140;28;20482;-84
2022/06/09 08:05:18;;;;;;;7.97;3.00;;;;;;;;;;4995753;28;20045;-84
2022/06/09 08:07:44;;;;;;;7.78;2.70;;;;;;;;;;5015648;28;20619;-84
2022/06/09 08:10:14;;;;;;;5.60;2.33;;;;;;;17.33;91.46;68692.53;5025209;28;20064;-84
2022/06/09 08:12:40;;;;;;;8.68;2.40;;;;;;;17.48;91.92;68711.75;5005303;28;20068;-83
2022/06/09 08:15:06;;;;;;;6.32;2.42;;;;;;;17.58;91.68;68717.22;5015545;28;20520;-84
2022/06/09 08:17:31;;;;;;;4.03;2.08;;;;;;;17.54;87.13;68715.91;5024501;28;20412;-84
2022/06/09 08:19:57;;;;;;;6.38;2.47;;;;;;;17.49;88.74;68712.91;5025688;28;20048;-84
2022/06/09 08:22:22;;;;;;;6.80;2.95;;;;;;;17.63;90.19;68725.59;5023122;28;20737;-84
2022/06/09 08:24:48;;;;;;;6.20;2.33;;;;;;;17.68;89.54;68733.44;5018848;28;20117;-84
2022/06/09 08:27:14;;;;;;;9.32;3.00;;;;;;;17.77;89.55;68738.91;5023208;28;20587;-84
2022/06/09 08:29:39;;;;;;;4.30;1.75;;;;;;;17.85;86.75;68757.69;5023014;28;20045;-84
2022/06/09 08:32:05;;;;;;;4.43;2.00;;;;;;;;;;5020766;28;20046;-84
2022/06/09 08:34:31;;;;;;;7.25;2.13;;;;;;;17.87;85.86;68755.16;5002325;28;20119;-84
2022/06/09 08:36:56;;;;;;;6.05;2.00;;;;;;;17.97;87.35;68766.00;5024625;28;20051;-84
2022/06/09 08:39:22;;;;;;;4.50;1.75;;;;;;;17.90;84.68;68750.50;5024221;28;20124;-84
2022/06/09 08:41:53;;;;;;;4.05;1.85;;;;;;;17.95;86.50;68758.91;5025121;28;20034;-84
2022/06/09 08:44:44;;;;;;;5.35;2.38;;;;;;;;;;5024845;28;20095;-84
2022/06/09 08:47:13;;;;;;;4.38;1.48;;;;;;;17.89;82.56;68757.44;5019447;28;20053;-84
2022/06/09 08:49:51;;;;;;;3.58;1.85;;;;;;;17.86;83.53;68751.31;5024966;28;20052;-84
2022/06/09 08:52:54;;;;;;;5.33;1.50;;;;;;;18.01;84.68;68771.13;5014849;28;20095;-84
2022/06/09 08:55:42;;;;;;;3.72;1.48;;;;;;;17.89;82.75;68756.84;5015708;28;20085;-84
2022/06/09 08:58:26;;;;;;;3.95;1.50;;;;;;;;;;5032173;28;20033;-84
2022/06/09 09:01:04;;;;;;;5.65;1.65;;;;;;;17.95;82.41;68761.59;5003822;28;20124;-84
2022/06/09 09:03:40;;;;;;;4.85;1.63;;;;;;;17.93;83.91;68761.44;5029876;28;20034;-84
2022/06/09 09:06:35;;;;;;;7.43;2.35;;;;;;;17.97;83.63;68763.28;5030689;28;20037;-84
2022/06/09 09:09:14;;;;;;;4.80;1.85;;;;;;;18.07;84.94;68774.72;4986042;28;20049;-84
2022/06/09 09:11:56;;;;;;;3.63;1.80;;;;;;;18.18;84.72;68784.59;5030627;28;20044;-84
2022/06/09 09:14:40;;;;;;;6.53;1.80;;;;;;;18.42;84.25;68816.78;5000307;28;20128;-84
2022/06/09 09:17:17;;;;;;;3.70;1.42;;;;;;;18.43;78.15;68814.66;5014720;28;20041;-84
2022/06/09 09:19:52;;;;;;;6.47;1.70;;;;;;;18.44;78.96;68815.81;4995898;28;20042;-84
2022/06/09 09:22:35;;;;;;;4.38;1.70;;;;;;;18.63;77.77;68839.63;5011205;28;20724;-84
2022/06/09 09:25:07;;;;;;;5.13;1.77;;;;;;;18.72;77.85;68847.22;5013132;28;20125;-84
2022/06/09 09:27:35;;;;;;;5.97;1.83;;;;;;;18.64;79.68;68835.38;5003787;28;20726;-84
2022/06/09 09:30:18;;;;;;;5.53;1.70;;;;;;;18.91;80.00;68871.06;5013774;28;20041;-84
2022/06/09 09:32:54;;;;;;;4.03;1.42;;;;;;;19.06;79.52;68882.22;5027770;28;20046;-84
2022/06/09 09:35:24;;;;;;;4.60;1.67;;;;;;;18.99;77.23;68876.91;5023892;28;20037;-84
2022/06/09 09:37:53;;;;;;;4.90;2.13;;;;;;;19.01;76.66;68881.91;5029053;28;20531;-84
2022/06/09 09:40:39;;;;;;;4.40;2.00;;;;;;;19.04;78.00;68880.50;5030962;28;20041;-84
2022/06/09 09:43:15;;;;;;;6.30;1.92;;;;;;;19.16;78.78;68890.94;5009165;28;20038;-84
2022/06/09 09:45:44;;;;;;;3.95;1.70;;;;;;;19.20;77.49;68900.34;5030922;28;20026;-84
2022/06/09 09:48:19;;;;;;;;;;;;;;;19.30;77.89;68911.75;5029022;28;20395;-84
2022/06/09 09:51:00;;;;;;;4.25;1.73;;;;;;;19.25;76.91;68903.34;5015686;28;19920;-84
2022/06/09 09:53:33;;;;;;;4.13;1.80;;;;;;;19.35;76.97;68914.78;5010513;28;20041;-84
2022/06/09 09:56:17;;;;;;;3.30;1.60;;;;;;;19.36;74.63;68921.31;5022449;28;20040;-82
2022/06/09 09:58:48;;;;;;;6.20;1.90;;;;;;;19.39;76.25;68919.34;5030520;28;20132;-82
2022/06/09 10:01:16;;;;;;;5.03;2.25;;;;;;;19.25;74.91;68908.75;5021532;28;20040;-82
2022/06/09 10:09:41;;;;;;;5.50;2.30;;;;;;;19.36;73.72;68926.72;5014776;28;20106;-82
2022/06/09 10:12:22;;;;;;;3.92;1.92;;;;;;;19.44;76.17;68927.19;5006774;28;20044;-82
2022/06/09 10:15:01;;;;;;;4.15;2.15;;;;;;;19.37;75.71;68923.03;5014599;28;20037;-82
2022/06/09 10:17:43;;;;;;;5.38;2.55;;;;;;;19.17;75.16;68898.06;5038750;28;20049;-82
2022/06/09 10:20:21;;;;;;;5.03;2.33;;;;;;;;;;5021756;28;20506;-82
2022/06/09 10:23:01;;;;;;;5.88;2.45;;;;;;;19.16;77.63;68899.63;5035520;28;20445;-82
2022/06/09 10:25:54;;;;;;;4.15;2.30;;;;;;;19.40;75.48;68920.50;5026375;28;20046;-82
2022/06/09 10:28:46;;;;;;;6.25;2.97;;;;;;;19.11;75.87;68893.91;5036731;28;20324;-82
2022/06/09 10:31:32;;;;;;;4.30;2.80;;;;;;;19.01;76.56;68877.06;5035118;28;20049;-82
2022/06/09 10:34:17;;;;;;;4.40;2.78;;;;;;;18.76;79.07;68854.50;5016514;28;20516;-82
2022/06/09 10:36:49;;;;;;;6.57;3.67;;;;;;;18.56;83.58;68828.94;5022735;28;20038;-82
2022/06/09 10:39:46;;;;;;;8.38;5.40;;;;;;;18.00;90.47;68767.28;5009770;28;20095;-82
2022/06/09 10:42:29;;;;;;;11.30;7.07;;;;;;;17.72;97.30;68735.91;4985402;28;20116;-82
2022/06/09 10:45:17;;;;;;;11.48;6.85;;;;;;;17.43;98.47;68703.34;4990041;28;20076;-82
2022/06/09 10:56:55;;;;;;;9.88;6.97;;;;;;;16.99;100.00;68651.63;5025362;28;20088;-82
2022/06/09 10:59:37;;;;;;;7.65;6.28;;;;;;;16.80;100.00;68635.91;5038653;28;20041;-83
2022/06/09 11:02:10;;;;;;;9.88;7.40;;;;;;;16.67;100.00;68621.06;5006746;28;20037;-82
2022/06/09 11:04:36;;;;;;;9.40;6.95;;;;;;;16.59;100.00;68609.25;5021214;28;20061;-82
2022/06/09 11:07:28;;;;;;;10.40;7.25;;;;;;;16.61;100.00;68614.78;5039835;28;20361;-82
2022/06/09 11:10:10;;;;;;;12.38;7.63;;;;;;;;;;5021025;28;20052;-81
2022/06/09 11:12:55;;;;;;;8.57;7.20;;;;;;;16.83;100.00;68639.34;5033124;28;20045;-82
2022/06/09 11:15:37;;;;;;;8.18;6.90;;;;;;;16.74;100.00;68625.78;5029075;28;20108;-82
2022/06/09 11:18:08;;;;;;;2.47;1.40;;;;;;;16.66;96.50;68615.13;4994858;28;20095;-82
2022/06/09 11:21:15;;;;;;;2.33;1.35;;;;;;;16.72;92.98;68626.22;5029166;28;20049;-82
2022/06/09 11:23:52;;;;;;;3.63;1.83;;;;;;;16.86;98.94;68642.75;5011483;28;20132;-81
2022/06/09 11:26:39;;;;;;;3.72;1.90;;;;;;;17.02;97.30;68659.84;5038312;28;20128;-81
2022/06/09 11:29:46;;;;;;;3.00;2.10;;;;;;;16.89;94.73;68646.19;5027722;28;20048;-84
2022/06/09 11:32:26;;;;;;;3.15;1.55;;;;;;;16.68;90.80;68622.19;4967604;28;20066;-83
2022/06/09 11:35:24;;;;;;;4.35;2.45;;;;;;;16.52;95.54;68604.53;5031521;28;20037;-83
2022/06/09 11:38:20;;;;;;;7.15;3.67;;;;;;;16.28;100.00;68577.72;5026787;28;20045;-83
2022/06/09 11:40:58;;;;;;;4.28;2.95;;;;;;;15.92;96.34;68532.47;5028125;28;21036;-82
2022/06/09 11:43:54;;;;;;;4.90;2.63;;;;;;;15.65;100.00;68504.38;5027659;28;20045;-82
2022/06/09 11:46:24;;;;;;;7.20;2.55;;;;;;;15.33;99.00;68469.06;5031427;28;20468;-81
2022/06/09 11:48:58;;;;;;;5.53;2.60;;;;;;;15.43;100.00;68482.56;5036584;28;20039;-82
2022/06/09 11:51:27;;;;;;;6.10;3.30;;;;;;;15.37;100.00;68476.31;5038299;28;20107;-82
2022/06/09 11:53:57;;;;;;;4.93;3.50;;;;;;;15.26;100.00;68461.09;5037521;28;20690;-82
2022/06/09 11:56:34;;;;;;;10.90;4.45;;;;;;;15.33;100.00;68471.75;5039423;28;20048;-82
2022/06/09 11:59:04;;;;;;;6.97;5.30;;;;;;;15.36;100.00;68475.16;5037686;28;20486;-82
2022/06/09 12:01:41;;;;;;;9.80;4.80;;;;;;;15.08;100.00;68444.41;5037456;28;20128;-82
2022/06/09 12:04:45;;;;;;;7.65;5.57;;;;;;;15.21;100.00;68455.97;5036512;28;20037;-82
2022/06/09 12:07:16;;;;;;;6.45;5.40;;;;;;;15.34;100.00;68470.22;5006300;28;20051;-82
2022/06/09 12:10:19;;;;;;;7.05;6.32;;;;;;;15.57;100.00;68499.09;5036499;28;20033;-82
2022/06/09 12:13:01;;;;;;;9.27;6.95;;;;;;;15.62;100.00;68504.19;5026761;28;20034;-81
2022/06/09 12:15:31;;;;;;;9.85;7.88;;;;;;;15.73;100.00;68516.19;5037283;28;20152;-82
2022/06/09 12:18:05;;;;;;;11.32;8.85;;;;;;;15.71;100.00;68508.56;5040189;28;20069;-82
2022/06/09 12:20:49;;;;;;;10.20;8.45;;;;;;;15.65;100.00;68507.06;5035426;28;20037;-82
2022/06/09 12:23:26;;;;;;;9.70;7.10;;;;;;;;;;5038439;28;20045;-83
2022/06/09 12:26:10;;;;;;;9.07;7.53;;;;;;;;;;5037330;28;20050;-83
2022/06/09 12:28:54;;;;;;;10.98;9.52;;;;;;;15.75;100.00;68518.47;5026994;28;20408;-83
2022/06/09 12:31:35;;;;;;;10.68;8.77;;;;;;;15.75;100.00;68513.13;5021673;28;20485;-83
2022/06/09 12:34:09;;;;;;;11.13;9.88;;;;;;;;;;4991139;28;20045;-83
2022/06/09 12:36:41;;;;;;;12.85;9.82;;;;;;;;;;5028473;28;20120;-83
2022/06/09 12:39:19;;;;;;;13.48;9.73;;;;;;;15.84;100.00;68525.47;5029522;28;20041;-83
2022/06/09 12:41:51;;;;;;;12.88;10.52;;;;;;;15.81;100.00;68522.63;5029341;28;20069;-83